El Jobean, Florida
Current Conditions -  °F | °C
As of 1:53 AM on Friday 28 Nov 2014 (Local Time) from KPGD Reporting Station
Clear Clear  
Wind Chill: 51°   Ceiling: Unl
Heat Index: 51°   Visibility: 10mi
Dew Point: 42°   Wind: 12mph
Humidity: 71%   Direction: 10°N
Pressure: 30.28"   Gusts: NA
Location:  26.9665°N, 82.2089°W
Report Text: KPGD 280653Z AUTO 01010KT 10SM CLR 11/06 A3028 RMK AO2 SLP254 T01060056
Loading
Personal Weather Stations






























Interactive Weather Map New forecast layout! Learn more

10-Day Weather Forecast

Advertisements
Track Severe Weather on mobile